Flight Track Log - Related Links

Times and Time Zones

All times are in EDT time to prevent confusion due to time zone crossing. See the EJA982 flight status page for this flight to view local times or setup timezone preferences in your user account.

Time Position Orientation Groundspeed Altitude Reporting Facility
EDT Latitude Longitude Course Direction KTS MPH feet Rate Location/Type
Thu 11:52:31 AM 42.8114 -109.8597 250° West 273 314 8,400  Level Salt Lake Center
Thu 11:53:33 AM 42.7742 -109.9275 233° Southwest 255 293 11,600 2,371 Climbing Salt Lake Center
Thu 11:54:00 AM 42.5612 -110.7203 251° West  Level Estimated
Thu 11:54:35 AM 42.7167 -110.0264 232° Southwest 311 358 13,300  Level Salt Lake Center
Thu 11:55:00 AM 42.5211 -110.8711 250° West  Level Estimated
Thu 11:55:37 AM 42.6889 -110.1589 254° West 373 429 16,400  Level Salt Lake Center
Thu 11:56:00 AM 42.4809 -111.0218 250° West  Level Estimated
Thu 11:56:39 AM 42.6586 -110.3136 255° West 380 437 18,800  Level Salt Lake Center
Thu 11:57:00 AM 42.4404 -111.1723 250° West  Level Estimated
Thu 11:57:41 AM 42.6300 -110.4489 254° West 387 445 20,600  Level Salt Lake Center
Thu 11:58:43 AM 42.5972 -110.6106 255° West 397 457 22,000 1,403 Climbing Salt Lake Center
Thu 11:59:45 AM 42.5681 -110.7528 254° West 407 468 23,500 1,500 Climbing Salt Lake Center
Thu 12:00:47 PM 42.5333 -110.9206 254° West 414 476 25,100 1,476 Climbing Salt Lake Center
Thu 12:01:51 PM 42.4972 -111.0875 254° West 420 483 26,600 1,238 Climbing Salt Lake Center
Thu 12:02:53 PM 42.4650 -111.2419 254° West 425 489 27,700 1,065 Climbing Salt Lake Center
Thu 12:03:55 PM 42.4303 -111.4008 254° West 438 504 28,800 1,065 Climbing Salt Lake Center
Thu 12:04:57 PM 42.3956 -111.5622 254° West 447 514 29,900 1,065 Climbing Salt Lake Center
Thu 12:05:59 PM 42.3600 -111.7247 254° West 452 520 31,000 1,790 Climbing Salt Lake Center
Thu 12:07:01 PM 42.3181 -111.9164 254° West 446 513 33,600 2,323 Climbing Salt Lake Center
Thu 12:08:03 PM 42.2836 -112.0708 253° West 435 501 35,800 1,887 Climbing Salt Lake Center
Thu 12:09:05 PM 42.2511 -112.2189 254° West 419 482 37,500 1,500 Climbing Salt Lake Center
Thu 12:10:07 PM 42.2172 -112.3703 253° West 421 484 38,900 1,210 Climbing Salt Lake Center
Thu 12:11:09 PM 42.1789 -112.5169 251° West 421 484 40,000 532 Climbing Salt Lake Center
Thu 12:12:11 PM 42.1242 -112.6686 244° Southwest 441 507 40,000  Level Salt Lake Center
Thu 12:13:13 PM 42.0594 -112.8636 246° West 469 540 40,000  Level Salt Lake Center
Thu 12:14:15 PM 42.0067 -113.0303 247° West 484 557 40,000  Level Salt Lake Center
Thu 12:15:17 PM 41.9561 -113.1953 248° West 483 556 40,000  Level Salt Lake Center
Thu 12:16:19 PM 41.9053 -113.3586 247° West 478 550 40,000  Level Salt Lake Center
Thu 12:17:21 PM 41.8558 -113.5208 248° West 473 544 40,000  Level Salt Lake Center
Thu 12:18:23 PM 41.7944 -113.7158 247° West 477 549 40,000  Level Salt Lake Center
Thu 12:19:25 PM 41.7439 -113.8786 247° West 476 548 40,000  Level Salt Lake Center
Thu 12:20:27 PM 41.6906 -114.0408 246° West 478 550 40,000  Level Salt Lake Center
Thu 12:21:29 PM 41.6408 -114.2028 248° West 475 547 40,000  Level Salt Lake Center
Thu 12:22:32 PM 41.5883 -114.3661 247° West 479 551 40,000  Level Salt Lake Center
Thu 12:23:34 PM 41.5358 -114.5306 247° West 483 556 40,000  Level Salt Lake Center
Thu 12:24:36 PM 41.4714 -114.7269 246° West 484 557 40,000  Level Salt Lake Center
Thu 12:25:38 PM 41.4167 -114.8922 246° West 479 551 40,000  Level Salt Lake Center
Thu 12:26:40 PM 41.3664 -115.0464 247° West 476 548 40,000  Level Salt Lake Center
Thu 12:27:42 PM 41.3056 -115.2292 246° West 483 556 40,000  Level Salt Lake Center
Thu 12:28:44 PM 41.2528 -115.3839 246° West 482 555 40,000  Level Salt Lake Center
Thu 12:29:46 PM 41.1931 -115.5669 247° West 482 555 40,000  Level Salt Lake Center
Thu 12:30:48 PM 41.1419 -115.7217 246° West 480 552 40,000  Level Salt Lake Center
Thu 12:31:50 PM 41.0892 -115.8758 246° West 481 554 40,000  Level Salt Lake Center
Thu 12:32:52 PM 41.0278 -116.0553 246° West 480 552 40,000  Level Salt Lake Center
Thu 12:33:54 PM 40.9736 -116.2094 245° Southwest 482 555 40,000  Level Salt Lake Center
Thu 12:34:56 PM 40.9125 -116.3906 246° West 485 558 40,000  Level Salt Lake Center
Thu 12:35:58 PM 40.8594 -116.5444 246° West 482 555 40,000  Level Salt Lake Center
Thu 12:37:00 PM 40.7964 -116.7239 245° Southwest 485 558 40,000  Level Salt Lake Center
Thu 12:38:02 PM 40.7431 -116.8761 245° Southwest 482 555 40,000  Level Salt Lake Center
Thu 12:39:04 PM 40.6814 -117.0522 245° Southwest 479 551 40,000  Level Salt Lake Center
Thu 12:40:06 PM 40.6275 -117.2042 245° Southwest 481 554 40,000  Level Salt Lake Center
Thu 12:41:08 PM 40.5636 -117.3794 244° Southwest 479 551 40,000  Level Salt Lake Center
Thu 12:42:10 PM 40.5094 -117.5314 245° Southwest 480 552 40,000  Level Salt Lake Center
Thu 12:43:12 PM 40.4447 -117.7078 244° Southwest 481 554 40,000  Level Salt Lake Center
Thu 12:44:14 PM 40.3900 -117.8589 245° Southwest 481 554 40,000  Level Salt Lake Center
Thu 12:45:16 PM 40.3253 -118.0342 244° Southwest 478 550 40,000  Level Salt Lake Center
Thu 12:46:03 PM 40.2806 -118.1578 245° Southwest 477 549 40,000  Level Oakland Center
Thu 12:47:05 PM 40.2242 -118.3164 245° Southwest 479 551 40,000  Level Oakland Center
Thu 12:48:06 PM 40.1683 -118.4736 245° Southwest 478 550 40,000  Level Oakland Center
Thu 12:49:08 PM 40.1125 -118.6311 245° Southwest 481 554 40,000  Level Oakland Center
Thu 12:50:09 PM 40.0558 -118.7867 245° Southwest 480 552 40,000  Level Oakland Center
Thu 12:51:11 PM 39.9881 -118.9761 245° Southwest 484 557 40,000  Level Oakland Center
Thu 12:52:12 PM 39.9317 -119.1328 245° Southwest 482 555 40,000  Level Oakland Center
Thu 12:53:14 PM 39.8739 -119.2894 244° Southwest 483 556 40,000 -98 Level Oakland Center
Thu 12:54:15 PM 39.8161 -119.4467 244° Southwest 483 556 39,800 -732 Descending Oakland Center
Thu 12:55:17 PM 39.7594 -119.5986 244° Southwest 472 543 38,500 -878 Descending Oakland Center
Thu 12:56:18 PM 39.7075 -119.7481 246° West 459 528 38,000 -293 Descending Oakland Center
Thu 12:57:20 PM 39.6511 -119.8992 244° Southwest 468 539 37,900 -1,024 Descending Oakland Center
Thu 12:58:21 PM 39.5831 -120.0814 244° Southwest 470 541 35,900 -1,902 Descending Oakland Center
Thu 12:59:23 PM 39.5281 -120.2203 243° Southwest 464 534 34,000 -927 Descending Oakland Center
Thu 01:00:24 PM 39.4708 -120.3731 244° Southwest 472 543 34,000  Level Oakland Center
Thu 01:01:26 PM 39.4114 -120.5294 244° Southwest 482 555 34,000 -677 Level Oakland Center
Thu 01:02:28 PM 39.3514 -120.6828 243° Southwest 481 554 32,600 -1,854 Descending Oakland Center
Thu 01:03:29 PM 39.2933 -120.8372 244° Southwest 480 552 30,200 -2,585 Descending Oakland Center
Thu 01:04:31 PM 39.2214 -121.0217 243° Southwest 482 555 27,300 -2,585 Descending Oakland Center
Thu 01:05:32 PM 39.1633 -121.1778 244° Southwest 482 555 24,900 -2,341 Descending Oakland Center
Thu 01:06:34 PM 39.1056 -121.3272 244° Southwest 472 543 22,500 -2,341 Descending Oakland Center
Thu 01:07:35 PM 39.0472 -121.4739 243° Southwest 466 536 20,100 -2,341 Descending Oakland Center
Thu 01:08:37 PM 38.9908 -121.6172 243° Southwest 457 526 17,700 -2,341 Descending Oakland Center
Thu 01:09:38 PM 38.9361 -121.7569 243° Southwest 446 513 15,300 -2,585 Descending Oakland Center
Thu 01:10:40 PM 38.8742 -121.9125 243° Southwest 416 479 12,400 -1,659 Descending Oakland Center
Thu 01:11:41 PM 38.8236 -122.0406 243° Southwest 408 470 11,900 -195 Descending Oakland Center
Thu 01:12:43 PM 38.7711 -122.1731 243° Southwest 415 478 12,000 -649 Climbing Oakland Center
Thu 01:14:00 PM 38.6878 -122.3252 235° Southwest  Level FlightAware Approximate
Thu 01:14:46 PM 38.6792 -122.3981 235° Southwest 335 386 9,900  Level Oakland Center
Thu 01:15:48 PM 38.6419 -122.4917 243° Southwest 298 343 7,900 -1,756 Descending Oakland Center
Thu 01:16:49 PM 38.6072 -122.5794 243° Southwest 283 326 6,300 -1,610 Descending Oakland Center
Thu 01:17:51 PM 38.5858 -122.6694 253° West 270 311 4,600 -1,500 Descending Oakland Center
Thu 01:18:53 PM 38.5825 -122.7600 267° West 263 303 3,200 -1,561 Descending Oakland Center
Thu 01:19:54 PM 38.5656 -122.8303 253° West 212 244 1,400 -1,317 Descending Oakland Center
Thu 01:20:56 PM 38.5328 -122.8236 171° South 157 181 500 -871 Descending Oakland Center

Login

Don't have an account? Register now (free) for customized features, flight alerts, and more!